createdAt,value
2017-10-16T00:00:56.338Z,75032.59
2017-10-16T00:01:56.360Z,75034.35
2017-10-16T00:02:56.386Z,75034.88
2017-10-16T00:03:56.414Z,75037.34
2017-10-16T00:04:56.440Z,75033.57
2017-10-16T00:05:56.470Z,75033.15
2017-10-16T00:06:56.492Z,75036.08
2017-10-16T00:07:56.520Z,75035.47
2017-10-16T00:08:56.545Z,75035.72
2017-10-16T00:09:56.570Z,75035.97
2017-10-16T00:10:56.598Z,75036.95
2017-10-16T00:11:56.623Z,75036.59
2017-10-16T00:12:56.650Z,75037.57
2017-10-16T00:13:56.676Z,75032.38
2017-10-16T00:14:56.713Z,75034.71
2017-10-16T00:15:56.729Z,75035.72
2017-10-16T00:16:56.755Z,75031.00
2017-10-16T00:17:56.782Z,75036.60
2017-10-16T00:18:56.807Z,75037.00
2017-10-16T00:19:56.834Z,75038.60
2017-10-16T00:20:56.861Z,75034.71
2017-10-16T00:21:56.886Z,75038.01
2017-10-16T00:22:56.911Z,75039.22
2017-10-16T00:23:56.938Z,75039.35
2017-10-16T00:24:56.966Z,75038.60
2017-10-16T00:25:56.991Z,75037.39
2017-10-16T00:26:57.018Z,75037.19
2017-10-16T00:27:57.044Z,75040.36
2017-10-16T00:28:57.071Z,75040.01
2017-10-16T00:29:57.097Z,75042.90
2017-10-16T00:30:57.122Z,75039.48
2017-10-16T00:31:57.149Z,75040.95
2017-10-16T00:32:57.177Z,75043.35
2017-10-16T00:33:57.204Z,75040.63
2017-10-16T00:34:57.230Z,75041.27
2017-10-16T00:35:57.255Z,75039.93
2017-10-16T00:36:57.282Z,75039.61
2017-10-16T00:37:57.307Z,75040.13
2017-10-16T00:38:57.334Z,75040.01
2017-10-16T00:39:57.359Z,75037.09
2017-10-16T00:40:57.388Z,75037.03
2017-10-16T00:41:57.433Z,75037.65
2017-10-16T00:42:57.439Z,75039.15
2017-10-16T00:43:57.464Z,75037.62
2017-10-16T00:44:57.493Z,75039.02
2017-10-16T00:45:57.518Z,75037.86
2017-10-16T00:46:57.546Z,75034.31
2017-10-16T00:47:57.570Z,75037.75
2017-10-16T00:48:57.602Z,75034.47
2017-10-16T00:49:57.621Z,75034.77
2017-10-16T00:50:57.649Z,75035.75
2017-10-16T00:51:57.675Z,75031.69
2017-10-16T00:52:57.701Z,75032.45
2017-10-16T00:53:57.726Z,75031.27
2017-10-16T00:54:57.753Z,75032.03
2017-10-16T00:55:57.780Z,75033.93
2017-10-16T00:56:57.811Z,75032.63
2017-10-16T00:57:57.832Z,75030.06
2017-10-16T00:58:57.858Z,75031.80
2017-10-16T00:59:57.884Z,75029.49
2017-10-16T01:00:57.911Z,75028.71
2017-10-16T01:01:57.936Z,75028.63
2017-10-16T01:02:57.964Z,75025.40
2017-10-16T01:03:57.990Z,75027.53
2017-10-16T01:04:58.016Z,75024.38
2017-10-16T01:05:58.041Z,75024.38
2017-10-16T01:06:58.067Z,75020.05
2017-10-16T01:07:58.100Z,75022.45
2017-10-16T01:08:58.119Z,75021.64
2017-10-16T01:09:58.145Z,75022.10
2017-10-16T01:10:58.172Z,75019.98
2017-10-16T01:11:58.198Z,75019.08
2017-10-16T01:12:58.224Z,75022.52
2017-10-16T01:13:58.250Z,75019.45
2017-10-16T01:14:58.275Z,75019.61
2017-10-16T01:15:58.301Z,75018.13
2017-10-16T01:16:58.328Z,75020.13
2017-10-16T01:17:58.353Z,75017.91
2017-10-16T01:18:58.380Z,75018.27
2017-10-16T01:19:58.406Z,75019.65
2017-10-16T01:20:58.433Z,75021.31
2017-10-16T01:21:58.460Z,75020.70
2017-10-16T01:22:58.484Z,75015.97
2017-10-16T01:23:58.510Z,75015.52
2017-10-16T01:24:58.540Z,75012.76
2017-10-16T01:25:58.561Z,75014.17
2017-10-16T01:26:58.588Z,75015.01
2017-10-16T01:27:58.615Z,75011.02
2017-10-16T01:28:58.640Z,75014.75
2017-10-16T01:29:58.666Z,75012.84
2017-10-16T01:30:58.692Z,75010.13
2017-10-16T01:31:58.718Z,75010.20
2017-10-16T01:32:58.750Z,75006.69
2017-10-16T01:33:58.769Z,75010.11
2017-10-16T01:34:58.796Z,75007.85
2017-10-16T01:35:58.822Z,75008.80
2017-10-16T01:36:58.848Z,75008.54
2017-10-16T01:37:58.873Z,75005.35
2017-10-16T01:38:58.900Z,75009.62
2017-10-16T01:39:58.926Z,75006.66
2017-10-16T01:40:58.952Z,75010.66
2017-10-16T01:41:58.977Z,75006.67
2017-10-16T01:42:59.003Z,75006.79
2017-10-16T01:43:59.032Z,75005.48
2017-10-16T01:44:59.057Z,75006.42
2017-10-16T01:45:59.082Z,75005.61
2017-10-16T01:46:59.107Z,75006.09
2017-10-16T01:47:59.134Z,75006.13
2017-10-16T01:48:59.160Z,75004.63
2017-10-16T01:49:59.185Z,75004.45
2017-10-16T01:50:59.211Z,75003.90
2017-10-16T01:51:59.238Z,75006.98
2017-10-16T01:52:59.264Z,75008.11
2017-10-16T01:53:59.289Z,75007.13
2017-10-16T01:54:59.316Z,75004.68
2017-10-16T01:55:59.342Z,75005.59
2017-10-16T01:56:59.368Z,75007.15
2017-10-16T01:57:59.393Z,75005.14
2017-10-16T01:58:59.420Z,75005.13
2017-10-16T01:59:59.447Z,75002.58
2017-10-16T02:00:59.474Z,75004.47
2017-10-16T02:01:59.498Z,75004.35
2017-10-16T02:02:59.525Z,75001.43
2017-10-16T02:03:59.551Z,75001.14
2017-10-16T02:04:59.578Z,75002.35
2017-10-16T02:05:59.609Z,75001.61
2017-10-16T02:06:59.629Z,74996.07
2017-10-16T02:07:59.656Z,74997.13
2017-10-16T02:08:59.681Z,74995.59
2017-10-16T02:09:59.706Z,74994.37
2017-10-16T02:10:59.733Z,74995.57
2017-10-16T02:11:59.762Z,74995.23
2017-10-16T02:12:59.786Z,74995.91
2017-10-16T02:13:59.812Z,74996.41
2017-10-16T02:14:59.881Z,74994.95
2017-10-16T02:15:59.865Z,74998.26
2017-10-16T02:16:59.891Z,74994.37
2017-10-16T02:17:59.916Z,74994.83
2017-10-16T02:18:59.943Z,74994.56
2017-10-16T02:19:59.968Z,74991.49
2017-10-16T02:21:00.000Z,74992.27
2017-10-16T02:22:00.021Z,74993.97
2017-10-16T02:23:00.049Z,74992.84
2017-10-16T02:24:00.074Z,74989.69
2017-10-16T02:25:00.101Z,74991.86
2017-10-16T02:26:00.127Z,74990.83
2017-10-16T02:27:00.153Z,74991.73
2017-10-16T02:28:00.179Z,74992.34
2017-10-16T02:29:00.206Z,74989.91
2017-10-16T02:30:00.232Z,74989.64
2017-10-16T02:31:00.257Z,74990.59
2017-10-16T02:32:00.286Z,74991.09
2017-10-16T02:33:00.312Z,74989.88
2017-10-16T02:34:00.337Z,74988.54
2017-10-16T02:35:00.362Z,74990.67
2017-10-16T02:36:00.390Z,74988.44
2017-10-16T02:37:00.416Z,74990.02
2017-10-16T02:38:00.443Z,74989.93
2017-10-16T02:39:00.467Z,74986.84
2017-10-16T02:40:00.495Z,74990.59
2017-10-16T02:41:00.521Z,74987.31
2017-10-16T02:42:00.546Z,74986.98
2017-10-16T02:43:00.576Z,74987.43
2017-10-16T02:44:00.599Z,74988.03
2017-10-16T02:45:00.625Z,74985.35
2017-10-16T02:46:00.650Z,74986.41
2017-10-16T02:47:00.677Z,74984.64
2017-10-16T02:48:00.705Z,74985.82
2017-10-16T02:49:00.730Z,74990.03
2017-10-16T02:50:00.754Z,74986.84
2017-10-16T02:51:00.782Z,74987.27
2017-10-16T02:52:00.807Z,74986.55
2017-10-16T02:53:00.834Z,74990.51
2017-10-16T02:54:00.860Z,74988.48
2017-10-16T02:55:00.887Z,74984.80
2017-10-16T02:56:00.913Z,74986.49
2017-10-16T02:57:00.939Z,74989.91
2017-10-16T02:58:00.965Z,74984.68
2017-10-16T02:59:00.990Z,74987.20
2017-10-16T03:00:01.017Z,74986.06
2017-10-16T03:01:01.043Z,74986.27
2017-10-16T03:02:01.068Z,74983.77
2017-10-16T03:03:01.094Z,74984.73
2017-10-16T03:04:01.121Z,74986.37
2017-10-16T03:05:01.148Z,74980.28
2017-10-16T03:06:01.173Z,74982.76
2017-10-16T03:07:01.199Z,74979.89
2017-10-16T03:08:01.226Z,74979.67
2017-10-16T03:09:01.252Z,74979.91
2017-10-16T03:10:01.277Z,74981.88
2017-10-16T03:11:01.304Z,74983.64
2017-10-16T03:12:01.335Z,74982.08
2017-10-16T03:13:01.356Z,74982.83
2017-10-16T03:14:01.382Z,74985.95
2017-10-16T03:15:01.408Z,74985.02
2017-10-16T03:16:01.433Z,74983.51
2017-10-16T03:17:01.460Z,74981.60
2017-10-16T03:18:01.486Z,74984.47
2017-10-16T03:19:01.511Z,74986.16
2017-10-16T03:20:01.539Z,74983.79
2017-10-16T03:21:01.567Z,74981.80
2017-10-16T03:22:01.591Z,74979.55
2017-10-16T03:23:01.615Z,74979.52
2017-10-16T03:24:01.641Z,74980.09
2017-10-16T03:25:01.669Z,74977.36
2017-10-16T03:26:01.694Z,74975.76
2017-10-16T03:27:01.720Z,74976.84
2017-10-16T03:28:01.746Z,74974.52
2017-10-16T03:29:01.773Z,74981.73
2017-10-16T03:30:01.799Z,74978.04
2017-10-16T03:31:01.824Z,74979.64
2017-10-16T03:32:01.854Z,74981.87
2017-10-16T03:33:01.877Z,74982.62
2017-10-16T03:34:01.902Z,74979.47
2017-10-16T03:35:01.933Z,74980.34
2017-10-16T03:36:01.954Z,74976.93
2017-10-16T03:37:01.980Z,74978.10
2017-10-16T03:38:02.005Z,74979.71
2017-10-16T03:39:02.031Z,74978.48
2017-10-16T03:40:02.057Z,74975.64
2017-10-16T03:41:02.084Z,74979.79
2017-10-16T03:42:02.109Z,74973.40
2017-10-16T03:43:02.140Z,74973.96
2017-10-16T03:44:02.161Z,74977.29
2017-10-16T03:45:02.193Z,74975.99
2017-10-16T03:46:02.213Z,74975.09
2017-10-16T03:47:02.238Z,74977.02
2017-10-16T03:48:02.265Z,74975.05
2017-10-16T03:49:02.292Z,74974.20
2017-10-16T03:50:02.316Z,74978.01
2017-10-16T03:51:02.342Z,74976.41
2017-10-16T03:52:02.369Z,74976.04
2017-10-16T03:53:02.398Z,74975.94
2017-10-16T03:54:02.420Z,74977.70
2017-10-16T03:55:02.447Z,74975.10
2017-10-16T03:56:02.473Z,74975.26
2017-10-16T03:57:02.500Z,74975.06
2017-10-16T03:58:02.525Z,74976.09
2017-10-16T03:59:02.552Z,74974.59
2017-10-16T04:00:02.576Z,74977.28
2017-10-16T04:01:02.605Z,74977.19
2017-10-16T04:02:02.629Z,74976.48
2017-10-16T04:03:02.656Z,74977.30
2017-10-16T04:04:02.685Z,74973.55
2017-10-16T04:05:02.708Z,74975.31
2017-10-16T04:06:02.732Z,74978.52
2017-10-16T04:07:02.759Z,74976.47
2017-10-16T04:08:02.792Z,74976.57
2017-10-16T04:09:02.812Z,74976.41
2017-10-16T04:10:02.838Z,74976.83
2017-10-16T04:11:02.864Z,74980.20
2017-10-16T04:12:02.891Z,74975.38
2017-10-16T04:13:02.917Z,74976.61
2017-10-16T04:14:02.942Z,74975.30
2017-10-16T04:15:02.968Z,74976.56
2017-10-16T04:16:02.995Z,74976.54
2017-10-16T04:17:03.021Z,74980.16
2017-10-16T04:18:03.047Z,74979.28
2017-10-16T04:19:03.072Z,74981.19
2017-10-16T04:20:03.100Z,74979.42
2017-10-16T04:21:03.126Z,74980.50
2017-10-16T04:22:03.151Z,74981.22
2017-10-16T04:23:03.178Z,74982.23
2017-10-16T04:24:03.204Z,74980.87
2017-10-16T04:25:03.231Z,74979.54
2017-10-16T04:26:03.257Z,74977.26
2017-10-16T04:27:03.283Z,74980.95
2017-10-16T04:28:03.310Z,74977.02
2017-10-16T04:29:03.336Z,74981.95
2017-10-16T04:30:03.361Z,74979.96
2017-10-16T04:31:03.387Z,74977.60
2017-10-16T04:32:03.414Z,74976.88
2017-10-16T04:33:03.451Z,74972.21
2017-10-16T04:34:03.467Z,74973.10
2017-10-16T04:35:03.493Z,74972.74
2017-10-16T04:36:03.520Z,74969.59
2017-10-16T04:37:03.546Z,74969.74
2017-10-16T04:38:03.572Z,74967.30
2017-10-16T04:39:03.598Z,74968.22
2017-10-16T04:40:03.626Z,74971.75
2017-10-16T04:41:03.652Z,74963.82
2017-10-16T04:42:03.678Z,74966.81
2017-10-16T04:43:03.704Z,74966.02
2017-10-16T04:44:03.732Z,74971.80
2017-10-16T04:45:03.757Z,74964.01
2017-10-16T04:46:03.783Z,74967.49
2017-10-16T04:47:03.811Z,74967.85
2017-10-16T04:48:03.836Z,74964.91
2017-10-16T04:49:03.862Z,74963.80
2017-10-16T04:50:03.892Z,74966.98
2017-10-16T04:51:03.916Z,74965.34
2017-10-16T04:52:03.941Z,74965.90
2017-10-16T04:53:03.969Z,74961.87
2017-10-16T04:54:03.994Z,74956.53
2017-10-16T04:55:04.022Z,74957.19
2017-10-16T04:56:04.049Z,74957.78
2017-10-16T04:57:04.079Z,74961.45
2017-10-16T04:58:04.104Z,74955.34
2017-10-16T04:59:04.129Z,74959.07
2017-10-16T05:00:04.163Z,74958.93
2017-10-16T05:01:04.183Z,74954.98
2017-10-16T05:02:04.208Z,74956.02
2017-10-16T05:03:04.235Z,74952.78
2017-10-16T05:04:04.261Z,74955.49
2017-10-16T05:05:04.288Z,74953.72
2017-10-16T05:06:04.314Z,74953.39
2017-10-16T05:07:04.340Z,74954.87
2017-10-16T05:08:04.368Z,74956.30
2017-10-16T05:09:04.395Z,74953.95
2017-10-16T05:10:04.421Z,74955.30
2017-10-16T05:11:04.447Z,74958.27
2017-10-16T05:12:04.474Z,74955.87
2017-10-16T05:13:04.500Z,74955.80
2017-10-16T05:14:04.527Z,74952.89
2017-10-16T05:15:04.554Z,74953.15
2017-10-16T05:16:04.580Z,74952.05
2017-10-16T05:17:04.607Z,74953.01
2017-10-16T05:18:04.633Z,74951.97
2017-10-16T05:19:04.661Z,74953.38
2017-10-16T05:20:04.687Z,74955.26
2017-10-16T05:21:04.713Z,74953.54
2017-10-16T05:22:04.741Z,74950.99
2017-10-16T05:23:04.767Z,74950.95
2017-10-16T05:24:04.794Z,74952.98
2017-10-16T05:25:04.820Z,74951.86
2017-10-16T05:26:04.846Z,74949.06
2017-10-16T05:27:04.884Z,74948.41
2017-10-16T05:28:04.910Z,74950.54
2017-10-16T05:29:04.927Z,74949.95
2017-10-16T05:30:04.952Z,74950.68
2017-10-16T05:31:04.980Z,74946.16
2017-10-16T05:32:05.007Z,74947.32
2017-10-16T05:33:05.039Z,74948.45
2017-10-16T05:34:05.059Z,74948.14
2017-10-16T05:35:05.086Z,74948.22
2017-10-16T05:36:05.113Z,74951.05
2017-10-16T05:37:05.140Z,74949.59
2017-10-16T05:38:05.170Z,74949.65
2017-10-16T05:39:05.194Z,74948.62
2017-10-16T05:40:05.220Z,74948.81
2017-10-16T05:41:05.247Z,74948.05
2017-10-16T05:42:05.276Z,74944.80
2017-10-16T05:43:05.299Z,74950.22
2017-10-16T05:44:05.326Z,74945.08
2017-10-16T05:45:05.354Z,74947.20
2017-10-16T05:46:05.380Z,74948.93
2017-10-16T05:47:05.407Z,74950.41
2017-10-16T05:48:05.433Z,74953.55
2017-10-16T05:49:05.461Z,74948.72
2017-10-16T05:50:05.487Z,74950.02
2017-10-16T05:51:05.514Z,74952.91
2017-10-16T05:52:05.541Z,74950.21
2017-10-16T05:53:05.569Z,74950.05
2017-10-16T05:54:05.594Z,74955.46
2017-10-16T05:55:05.621Z,74953.73
2017-10-16T05:56:05.649Z,74955.43
2017-10-16T05:57:05.676Z,74954.68
2017-10-16T05:58:05.706Z,74955.57
2017-10-16T05:59:05.729Z,74957.45
2017-10-16T06:00:05.757Z,74959.62
2017-10-16T06:01:05.785Z,74955.16
2017-10-16T06:02:05.812Z,74956.08
2017-10-16T06:03:05.838Z,74961.66
2017-10-16T06:04:05.866Z,74960.41
2017-10-16T06:05:05.893Z,74960.36
2017-10-16T06:06:05.920Z,74962.21
2017-10-16T06:07:05.972Z,74963.77
2017-10-16T06:08:05.974Z,74964.57
2017-10-16T06:09:06.022Z,74963.85
2017-10-16T06:10:06.030Z,74966.84
2017-10-16T06:11:06.057Z,74966.56
2017-10-16T06:12:06.087Z,74965.98
2017-10-16T06:13:06.134Z,74969.45
2017-10-16T06:14:06.139Z,74967.20
2017-10-16T06:15:06.167Z,74967.81
2017-10-16T06:16:06.196Z,74965.95
2017-10-16T06:17:06.223Z,74967.03
2017-10-16T06:18:06.251Z,74966.42
2017-10-16T06:19:06.278Z,74963.66
2017-10-16T06:20:06.306Z,74962.77
2017-10-16T06:21:06.335Z,74961.63
2017-10-16T06:22:06.362Z,74960.71
2017-10-16T06:23:06.390Z,74960.91
2017-10-16T06:26:18.671Z,74960.11
2017-10-16T06:27:18.681Z,74960.45
2017-10-16T06:28:18.709Z,74961.55
2017-10-16T06:29:18.743Z,74961.07
2017-10-16T06:30:18.766Z,74960.06
2017-10-16T06:31:18.795Z,74961.41
2017-10-16T06:32:18.827Z,74963.73
2017-10-16T06:33:18.852Z,74965.83
2017-10-16T06:34:18.880Z,74966.28
2017-10-16T06:35:18.908Z,74965.40
2017-10-16T06:36:18.938Z,74959.54
2017-10-16T06:37:18.966Z,74961.01
2017-10-16T06:38:19.000Z,74959.05
2017-10-16T06:39:19.024Z,74964.59
2017-10-16T06:40:19.053Z,74964.63
2017-10-16T06:41:19.081Z,74961.95
2017-10-16T06:42:19.111Z,74968.00
2017-10-16T06:43:19.140Z,74964.06
2017-10-16T06:44:19.191Z,74965.15
2017-10-16T06:45:19.198Z,74967.16
2017-10-16T06:46:19.228Z,74967.08
2017-10-16T06:47:19.261Z,74966.48
2017-10-16T06:48:19.287Z,74964.17
2017-10-16T06:49:19.316Z,74969.77
2017-10-16T06:50:19.346Z,74970.94
2017-10-16T06:51:19.376Z,74970.01
2017-10-16T06:52:19.405Z,74973.95
2017-10-16T06:53:19.433Z,74971.26
2017-10-16T06:54:19.464Z,74974.54
2017-10-16T06:55:19.495Z,74974.09
2017-10-16T06:56:19.525Z,74970.27
2017-10-16T06:57:19.554Z,74969.82
2017-10-16T06:58:19.597Z,74972.17
2017-10-16T06:59:19.617Z,74970.44
2017-10-16T07:00:19.645Z,74969.34
2017-10-16T07:01:19.678Z,74972.21
2017-10-16T07:02:19.704Z,74972.32
2017-10-16T07:03:19.735Z,74975.40
2017-10-16T07:04:19.766Z,74973.81
2017-10-16T07:05:19.797Z,74977.98
2017-10-16T07:06:19.827Z,74978.83
2017-10-16T07:07:19.858Z,74976.66
2017-10-16T07:08:19.889Z,74976.68
2017-10-16T07:09:19.919Z,74975.73
2017-10-16T07:10:19.950Z,74974.62
2017-10-16T07:11:19.981Z,74976.19
2017-10-16T07:12:20.013Z,74976.52
2017-10-16T07:13:20.043Z,74974.92
2017-10-16T07:14:20.074Z,74975.28
2017-10-16T07:15:20.105Z,74974.32
2017-10-16T07:16:20.140Z,74979.16
2017-10-16T07:17:20.167Z,74974.16
2017-10-16T07:18:20.198Z,74975.02
2017-10-16T07:19:20.231Z,74979.41
2017-10-16T07:20:20.261Z,74980.23
2017-10-16T07:21:20.292Z,74981.16
2017-10-16T07:22:20.324Z,74980.51
2017-10-16T07:23:20.356Z,74980.45
2017-10-16T07:24:20.388Z,74980.29
2017-10-16T07:25:20.419Z,74979.32
2017-10-16T07:26:20.450Z,74980.94
2017-10-16T07:27:20.483Z,74980.48
2017-10-16T07:28:20.515Z,74982.12
2017-10-16T07:29:20.546Z,74985.30
2017-10-16T07:30:20.578Z,74983.71
2017-10-16T07:31:20.610Z,74988.44
2017-10-16T07:32:20.643Z,74989.52
2017-10-16T07:33:20.674Z,74992.85
2017-10-16T07:34:20.707Z,74989.39
2017-10-16T07:35:20.740Z,74988.38
2017-10-16T07:36:20.772Z,74988.13
2017-10-16T07:37:20.807Z,74986.48
2017-10-16T07:38:20.837Z,74984.93
2017-10-16T07:39:20.870Z,74986.75
2017-10-16T07:40:20.904Z,74990.45
2017-10-16T07:41:20.935Z,74991.56
2017-10-16T07:42:20.967Z,74996.49
2017-10-16T07:43:21.004Z,74993.06
2017-10-16T07:44:21.034Z,74995.62
2017-10-16T07:45:21.066Z,74994.29
2017-10-16T07:46:21.105Z,74993.98
2017-10-16T07:47:21.132Z,74994.13
2017-10-16T07:48:21.173Z,74997.33
2017-10-16T07:49:21.199Z,74994.63
2017-10-16T07:50:21.232Z,74998.09
2017-10-16T07:51:21.265Z,74996.98
2017-10-16T07:52:21.300Z,74995.48
2017-10-16T07:53:21.331Z,74995.11
2017-10-16T07:54:21.365Z,74996.45
2017-10-16T07:55:21.398Z,74997.16
2017-10-16T07:56:21.438Z,74998.34
2017-10-16T07:57:21.465Z,74999.21
2017-10-16T07:58:21.498Z,74994.02
2017-10-16T07:59:21.531Z,74991.17
2017-10-16T08:00:21.565Z,74997.07
2017-10-16T08:01:21.598Z,74993.98
2017-10-16T08:02:21.632Z,74995.34
2017-10-16T08:03:21.665Z,74998.76
2017-10-16T08:04:21.699Z,74997.05
2017-10-16T08:05:21.731Z,74998.58
2017-10-16T08:06:21.766Z,74996.32
2017-10-16T08:07:21.800Z,74993.71
2017-10-16T08:08:21.834Z,74996.75
2017-10-16T08:09:21.867Z,74992.99
2017-10-16T08:10:21.901Z,74994.01
2017-10-16T08:11:21.934Z,74990.87
2017-10-16T08:12:21.969Z,74994.55
2017-10-16T08:13:22.005Z,74993.99
2017-10-16T08:14:22.036Z,74997.00
2017-10-16T08:15:22.070Z,74997.40
2017-10-16T08:16:22.104Z,74995.95
2017-10-16T08:17:22.138Z,74998.30
2017-10-16T08:18:22.172Z,74996.52
2017-10-16T08:19:22.207Z,75002.41
2017-10-16T08:20:22.261Z,74999.02
2017-10-16T08:21:22.274Z,74998.40
2017-10-16T08:22:22.309Z,74992.87
2017-10-16T08:23:22.344Z,74998.01
2017-10-16T08:24:22.379Z,74996.67
2017-10-16T08:25:22.412Z,74995.11
2017-10-16T08:26:22.447Z,75000.93
2017-10-16T08:27:22.481Z,74995.88
2017-10-16T08:28:22.516Z,74996.49
2017-10-16T08:29:22.550Z,74997.75
2017-10-16T08:30:22.592Z,75001.03
2017-10-16T08:31:22.627Z,75000.05
2017-10-16T08:32:22.662Z,75000.39
2017-10-16T08:33:22.691Z,74996.09
2017-10-16T08:34:22.724Z,75001.95
2017-10-16T08:35:22.758Z,75002.95
2017-10-16T08:36:22.793Z,75003.02
2017-10-16T08:37:22.848Z,75001.30
2017-10-16T08:38:22.863Z,75003.77
2017-10-16T08:39:22.900Z,75005.74
2017-10-16T08:40:22.934Z,75006.44
2017-10-16T08:41:22.968Z,74999.72
2017-10-16T08:42:23.005Z,74999.66
2017-10-16T08:43:23.040Z,75003.78
2017-10-16T08:44:23.079Z,75005.25
2017-10-16T08:45:23.109Z,75004.02
2017-10-16T08:46:23.146Z,75008.10
2017-10-16T08:47:23.182Z,75008.80
2017-10-16T08:48:23.218Z,75005.22
2017-10-16T08:49:23.253Z,75006.56
2017-10-16T08:50:23.288Z,75006.70
2017-10-16T08:51:23.324Z,75009.75
2017-10-16T08:52:23.361Z,75013.90
2017-10-16T08:53:23.397Z,75010.35
2017-10-16T08:54:23.434Z,75013.21
2017-10-16T08:55:23.494Z,75015.57
2017-10-16T08:56:23.506Z,75014.80
2017-10-16T08:57:23.543Z,75010.63
2017-10-16T08:58:23.579Z,75009.75
2017-10-16T08:59:23.616Z,75007.05
2017-10-16T09:00:23.655Z,75007.49
2017-10-16T09:01:23.689Z,75012.13
2017-10-16T09:02:23.725Z,75013.07
2017-10-16T09:03:23.763Z,75012.02
2017-10-16T09:04:23.801Z,75011.16
2017-10-16T09:05:23.837Z,75013.23
2017-10-16T09:06:23.874Z,75011.70
2017-10-16T09:07:23.911Z,75009.45
2017-10-16T09:08:23.950Z,75011.23
2017-10-16T09:09:23.986Z,75011.15
2017-10-16T09:10:24.024Z,75010.94
2017-10-16T09:11:24.062Z,75013.83
2017-10-16T09:12:24.099Z,75012.08
2017-10-16T09:13:24.141Z,75013.07
2017-10-16T09:14:24.175Z,75015.71
2017-10-16T09:15:24.213Z,75016.14
2017-10-16T09:16:24.252Z,75018.28
2017-10-16T09:17:24.323Z,75019.35
2017-10-16T09:18:24.328Z,75020.39
2017-10-16T09:19:24.366Z,75019.35
2017-10-16T09:20:24.405Z,75019.06
2017-10-16T09:21:24.443Z,75015.04
2017-10-16T09:22:24.492Z,75023.41
2017-10-16T09:23:24.522Z,75018.78
2017-10-16T09:24:24.561Z,75018.14
2017-10-16T09:25:24.599Z,75021.69
2017-10-16T09:26:24.636Z,75026.15
2017-10-16T09:27:24.699Z,75022.53
2017-10-16T09:28:24.715Z,75028.45
2017-10-16T09:29:24.759Z,75021.20
2017-10-16T09:30:24.800Z,75018.50
2017-10-16T09:31:24.835Z,75018.31
2017-10-16T09:32:24.871Z,75017.54
2017-10-16T09:33:24.911Z,75015.65
2017-10-16T09:34:24.951Z,75014.93
2017-10-16T09:35:24.991Z,75015.23
2017-10-16T09:36:25.030Z,75016.86
2017-10-16T09:37:25.069Z,75017.06
2017-10-16T09:38:25.112Z,75015.98
2017-10-16T09:39:25.160Z,75019.44
2017-10-16T09:40:25.191Z,75018.99
2017-10-16T09:41:25.230Z,75022.27
2017-10-16T09:42:25.269Z,75014.76
2017-10-16T09:43:25.310Z,75014.15
2017-10-16T09:44:25.349Z,75017.16
2017-10-16T09:45:25.389Z,75013.15
2017-10-16T09:46:25.430Z,75018.80
2017-10-16T09:47:25.471Z,75021.48
2017-10-16T09:48:25.511Z,75017.05
2017-10-16T09:49:25.563Z,75020.42
2017-10-16T09:50:25.592Z,75019.91
2017-10-16T09:51:25.632Z,75017.20
2017-10-16T09:52:25.673Z,75014.20
2017-10-16T09:53:25.713Z,75020.46
2017-10-16T09:54:25.753Z,75017.29
2017-10-16T09:55:25.795Z,75015.73
2017-10-16T09:56:25.835Z,75020.52
2017-10-16T09:57:25.875Z,75019.90
2017-10-16T09:58:25.917Z,75016.55
2017-10-16T09:59:25.957Z,75014.34
2017-10-16T10:00:25.998Z,75014.80
2017-10-16T10:01:26.038Z,75014.95
2017-10-16T10:02:26.078Z,75020.89
2017-10-16T10:03:26.119Z,75019.36
2017-10-16T10:04:26.160Z,75016.09
2017-10-16T10:05:26.200Z,75017.38
2017-10-16T10:06:26.241Z,75017.78
2017-10-16T10:07:26.282Z,75017.45
2017-10-16T10:08:26.324Z,75016.04
2017-10-16T10:09:26.362Z,75019.14
2017-10-16T10:10:26.404Z,75014.31
2017-10-16T10:11:26.446Z,75006.72
2017-10-16T10:12:26.487Z,75015.62
2017-10-16T10:13:26.532Z,75012.59
2017-10-16T10:14:26.570Z,75012.74
2017-10-16T10:15:26.610Z,75012.97
2017-10-16T10:16:26.652Z,75013.02
2017-10-16T10:17:26.693Z,75012.79
2017-10-16T10:18:26.734Z,75015.41
2017-10-16T10:19:26.775Z,75010.72
2017-10-16T10:20:26.818Z,75013.76
2017-10-16T10:21:26.857Z,75015.32
2017-10-16T10:22:26.898Z,75016.51
2017-10-16T10:23:26.941Z,75017.41
2017-10-16T10:24:26.981Z,75009.66
2017-10-16T10:25:27.022Z,75015.55
2017-10-16T10:26:27.064Z,75011.39
2017-10-16T10:27:27.105Z,75014.55
2017-10-16T10:28:27.147Z,75011.80
2017-10-16T10:29:27.188Z,75012.46
2017-10-16T10:30:27.229Z,75006.75
2017-10-16T10:31:27.270Z,75009.94
2017-10-16T10:32:27.313Z,75001.08
2017-10-16T10:33:27.354Z,75008.39
2017-10-16T10:34:27.396Z,75013.12
2017-10-16T10:35:27.439Z,75008.79
2017-10-16T10:36:27.479Z,75004.76
2017-10-16T10:37:27.520Z,75002.81
2017-10-16T10:38:27.561Z,75006.74
2017-10-16T10:39:27.604Z,74999.14
2017-10-16T10:40:27.647Z,75008.65
2017-10-16T10:41:27.686Z,75007.71
2017-10-16T10:42:27.729Z,74999.52
2017-10-16T10:43:27.771Z,75006.00
2017-10-16T10:44:27.813Z,74999.59
2017-10-16T10:45:27.876Z,74998.16
2017-10-16T10:46:27.896Z,75001.10
2017-10-16T10:47:27.939Z,75000.02
2017-10-16T10:48:27.979Z,75001.64
2017-10-16T10:49:28.020Z,75001.09
2017-10-16T10:50:28.062Z,74997.29
2017-10-16T10:51:28.104Z,75004.22
2017-10-16T10:52:28.145Z,74997.65
2017-10-16T10:53:28.187Z,74994.35
2017-10-16T10:54:28.228Z,74993.78
2017-10-16T10:55:28.270Z,74992.35
2017-10-16T10:56:28.311Z,74997.84
2017-10-16T10:57:28.352Z,75000.28
2017-10-16T10:58:28.394Z,75004.77
2017-10-16T10:59:28.437Z,75002.44
2017-10-16T11:00:28.479Z,75002.55
2017-10-16T11:01:28.519Z,75007.16
2017-10-16T11:02:28.561Z,75007.16
2017-10-16T11:03:28.608Z,75003.83
2017-10-16T11:04:28.644Z,75000.58
2017-10-16T11:05:28.686Z,75003.50
2017-10-16T11:06:28.727Z,75001.61
2017-10-16T11:07:28.769Z,75001.93
2017-10-16T11:08:28.821Z,75001.73
2017-10-16T11:09:28.852Z,75003.95
2017-10-16T11:10:28.893Z,75002.87
2017-10-16T11:11:28.934Z,75002.47
2017-10-16T11:12:28.976Z,75006.82
2017-10-16T11:13:29.017Z,75002.59
2017-10-16T11:14:29.058Z,74999.76
2017-10-16T11:15:29.101Z,75002.01
2017-10-16T11:16:29.141Z,75000.02
2017-10-16T11:17:29.181Z,75000.59
2017-10-16T11:18:29.223Z,75003.62
2017-10-16T11:19:29.265Z,75000.25
2017-10-16T11:20:29.306Z,74999.40
2017-10-16T11:21:29.346Z,75003.98
2017-10-16T11:22:29.388Z,75002.34
2017-10-16T11:23:29.429Z,75005.45
2017-10-16T11:24:29.471Z,74999.09
2017-10-16T11:25:29.512Z,74997.19
2017-10-16T11:26:29.554Z,74995.97
2017-10-16T11:27:29.595Z,74997.44
2017-10-16T11:28:29.637Z,74994.94
2017-10-16T11:29:29.679Z,74994.88
2017-10-16T11:30:29.719Z,74992.53
2017-10-16T11:31:29.761Z,74992.56
2017-10-16T11:32:29.803Z,74991.99
2017-10-16T11:33:29.843Z,74988.74
2017-10-16T11:34:29.884Z,74996.98
2017-10-16T11:35:29.925Z,74990.64
2017-10-16T11:36:29.967Z,74989.05
2017-10-16T11:37:30.009Z,74990.72
2017-10-16T11:38:30.049Z,74986.42
2017-10-16T11:39:30.091Z,74989.11
2017-10-16T11:40:30.132Z,74987.28
2017-10-16T11:41:30.174Z,74989.38
2017-10-16T11:42:30.232Z,74983.52
2017-10-16T11:43:30.257Z,74984.38
2017-10-16T11:44:30.298Z,74985.83
2017-10-16T11:45:30.339Z,74983.67
2017-10-16T11:46:30.380Z,74989.95
2017-10-16T11:47:30.424Z,74988.72